sensor_id;sensor_type;location;lat;lon;timestamp;temperature;humidity
54960;DHT22;40860;51.710;8.736;2022-09-27T00:03:42;10.60;99.90
54960;DHT22;40860;51.710;8.736;2022-09-27T00:07:47;10.60;99.90
54960;DHT22;40860;51.710;8.736;2022-09-27T00:11:50;10.60;99.90
54960;DHT22;40860;51.710;8.736;2022-09-27T00:15:55;10.60;99.90
54960;DHT22;40860;51.710;8.736;2022-09-27T00:19:59;10.70;99.90
54960;DHT22;40860;51.710;8.736;2022-09-27T00:24:03;10.70;99.90
54960;DHT22;40860;51.710;8.736;2022-09-27T00:28:07;10.70;99.90
54960;DHT22;40860;51.710;8.736;2022-09-27T00:32:10;10.70;99.90
54960;DHT22;40860;51.710;8.736;2022-09-27T00:36:13;10.70;99.90
54960;DHT22;40860;51.710;8.736;2022-09-27T00:40:17;10.70;99.90
54960;DHT22;40860;51.710;8.736;2022-09-27T00:45:02;10.70;99.90
54960;DHT22;40860;51.710;8.736;2022-09-27T00:49:10;10.70;99.90
54960;DHT22;40860;51.710;8.736;2022-09-27T00:53:17;10.70;99.90
54960;DHT22;40860;51.710;8.736;2022-09-27T00:57:23;10.70;99.90
54960;DHT22;40860;51.710;8.736;2022-09-27T01:01:26;10.70;99.90
54960;DHT22;40860;51.710;8.736;2022-09-27T01:05:31;10.70;99.90
54960;DHT22;40860;51.710;8.736;2022-09-27T01:09:34;10.70;99.90
54960;DHT22;40860;51.710;8.736;2022-09-27T01:13:43;10.70;99.90
54960;DHT22;40860;51.710;8.736;2022-09-27T01:18:00;10.70;99.90
54960;DHT22;40860;51.710;8.736;2022-09-27T01:22:07;10.70;99.90
54960;DHT22;40860;51.710;8.736;2022-09-27T01:26:17;10.70;99.90
54960;DHT22;40860;51.710;8.736;2022-09-27T01:30:24;10.70;99.90
54960;DHT22;40860;51.710;8.736;2022-09-27T01:34:34;10.70;99.90
54960;DHT22;40860;51.710;8.736;2022-09-27T01:38:44;10.70;99.90
54960;DHT22;40860;51.710;8.736;2022-09-27T01:42:57;10.70;99.90
54960;DHT22;40860;51.710;8.736;2022-09-27T01:47:11;10.60;99.90
54960;DHT22;40860;51.710;8.736;2022-09-27T01:51:27;10.60;99.90
54960;DHT22;40860;51.710;8.736;2022-09-27T01:55:35;10.60;99.90
54960;DHT22;40860;51.710;8.736;2022-09-27T02:00:10;10.50;99.90
54960;DHT22;40860;51.710;8.736;2022-09-27T02:04:21;10.50;99.90
54960;DHT22;40860;51.710;8.736;2022-09-27T02:08:44;10.50;99.90
54960;DHT22;40860;51.710;8.736;2022-09-27T02:13:06;10.50;99.90
54960;DHT22;40860;51.710;8.736;2022-09-27T02:17:21;10.50;99.90
54960;DHT22;40860;51.710;8.736;2022-09-27T02:21:37;10.50;99.90
54960;DHT22;40860;51.710;8.736;2022-09-27T02:25:46;10.50;99.90
54960;DHT22;40860;51.710;8.736;2022-09-27T02:29:56;10.50;99.90
54960;DHT22;40860;51.710;8.736;2022-09-27T02:34:02;10.50;99.90
54960;DHT22;40860;51.710;8.736;2022-09-27T02:38:08;10.50;99.90
54960;DHT22;40860;51.710;8.736;2022-09-27T02:42:11;10.40;99.90
54960;DHT22;40860;51.710;8.736;2022-09-27T02:46:28;10.40;99.90
54960;DHT22;40860;51.710;8.736;2022-09-27T02:50:56;10.50;99.90
54960;DHT22;40860;51.710;8.736;2022-09-27T02:55:22;10.40;99.90
54960;DHT22;40860;51.710;8.736;2022-09-27T02:59:46;10.40;99.90
54960;DHT22;40860;51.710;8.736;2022-09-27T03:04:04;10.40;99.90
54960;DHT22;40860;51.710;8.736;2022-09-27T03:08:10;10.40;99.90
54960;DHT22;40860;51.710;8.736;2022-09-27T03:12:17;10.30;99.90
54960;DHT22;40860;51.710;8.736;2022-09-27T03:16:23;10.30;99.90
54960;DHT22;40860;51.710;8.736;2022-09-27T03:20:34;10.30;99.90
54960;DHT22;40860;51.710;8.736;2022-09-27T03:24:45;10.30;99.90
54960;DHT22;40860;51.710;8.736;2022-09-27T03:28:49;10.30;99.90
54960;DHT22;40860;51.710;8.736;2022-09-27T03:32:52;10.30;99.90
54960;DHT22;40860;51.710;8.736;2022-09-27T03:37:13;10.30;99.90
54960;DHT22;40860;51.710;8.736;2022-09-27T03:41:16;10.30;99.90
54960;DHT22;40860;51.710;8.736;2022-09-27T03:45:21;10.20;99.90
54960;DHT22;40860;51.710;8.736;2022-09-27T03:49:24;10.20;99.90
54960;DHT22;40860;51.710;8.736;2022-09-27T03:53:27;10.20;99.90
54960;DHT22;40860;51.710;8.736;2022-09-27T03:57:30;10.20;99.90
54960;DHT22;40860;51.710;8.736;2022-09-27T04:01:34;10.10;99.90
54960;DHT22;40860;51.710;8.736;2022-09-27T04:05:59;10.10;99.90
54960;DHT22;40860;51.710;8.736;2022-09-27T04:10:10;10.10;99.90
54960;DHT22;40860;51.710;8.736;2022-09-27T04:14:13;10.10;99.90
54960;DHT22;40860;51.710;8.736;2022-09-27T04:18:37;10.10;99.90
54960;DHT22;40860;51.710;8.736;2022-09-27T04:22:59;10.10;99.90
54960;DHT22;40860;51.710;8.736;2022-09-27T04:27:02;10.00;99.90
54960;DHT22;40860;51.710;8.736;2022-09-27T04:31:05;10.00;99.90
54960;DHT22;40860;51.710;8.736;2022-09-27T04:35:25;10.00;99.90
54960;DHT22;40860;51.710;8.736;2022-09-27T04:39:45;10.00;99.90
54960;DHT22;40860;51.710;8.736;2022-09-27T04:43:50;10.00;99.90
54960;DHT22;40860;51.710;8.736;2022-09-27T04:47:59;10.00;99.90
54960;DHT22;40860;51.710;8.736;2022-09-27T04:52:04;10.00;99.90
54960;DHT22;40860;51.710;8.736;2022-09-27T04:56:07;10.00;99.90
54960;DHT22;40860;51.710;8.736;2022-09-27T05:00:11;10.00;99.90
54960;DHT22;40860;51.710;8.736;2022-09-27T05:04:15;10.00;99.90
54960;DHT22;40860;51.710;8.736;2022-09-27T05:08:24;10.00;99.90
54960;DHT22;40860;51.710;8.736;2022-09-27T05:12:49;10.00;99.90
54960;DHT22;40860;51.710;8.736;2022-09-27T05:16:53;9.90;99.90
54960;DHT22;40860;51.710;8.736;2022-09-27T05:21:14;9.90;99.90
54960;DHT22;40860;51.710;8.736;2022-09-27T05:25:21;9.90;99.90
54960;DHT22;40860;51.710;8.736;2022-09-27T05:29:24;9.80;99.90
54960;DHT22;40860;51.710;8.736;2022-09-27T05:33:47;9.80;99.90
54960;DHT22;40860;51.710;8.736;2022-09-27T05:38:06;9.80;99.90
54960;DHT22;40860;51.710;8.736;2022-09-27T05:42:12;9.80;99.90
54960;DHT22;40860;51.710;8.736;2022-09-27T05:46:16;9.80;99.90
54960;DHT22;40860;51.710;8.736;2022-09-27T05:50:21;9.80;99.90
54960;DHT22;40860;51.710;8.736;2022-09-27T05:54:24;9.80;99.90
54960;DHT22;40860;51.710;8.736;2022-09-27T05:58:30;9.80;99.90
54960;DHT22;40860;51.710;8.736;2022-09-27T06:02:52;9.80;99.90
54960;DHT22;40860;51.710;8.736;2022-09-27T06:07:18;9.80;99.90
54960;DHT22;40860;51.710;8.736;2022-09-27T06:11:21;9.80;99.90
54960;DHT22;40860;51.710;8.736;2022-09-27T06:15:25;9.80;99.90
54960;DHT22;40860;51.710;8.736;2022-09-27T06:19:28;9.80;99.90
54960;DHT22;40860;51.710;8.736;2022-09-27T06:23:31;9.80;99.90
54960;DHT22;40860;51.710;8.736;2022-09-27T06:27:43;9.80;99.90
54960;DHT22;40860;51.710;8.736;2022-09-27T06:31:56;9.80;99.90
54960;DHT22;40860;51.710;8.736;2022-09-27T06:36:09;9.80;99.90
54960;DHT22;40860;51.710;8.736;2022-09-27T06:40:14;9.80;99.90
54960;DHT22;40860;51.710;8.736;2022-09-27T06:44:28;9.80;99.90
54960;DHT22;40860;51.710;8.736;2022-09-27T06:48:36;9.80;99.90
54960;DHT22;40860;51.710;8.736;2022-09-27T06:52:48;9.80;99.90
54960;DHT22;40860;51.710;8.736;2022-09-27T06:56:52;9.80;99.90
54960;DHT22;40860;51.710;8.736;2022-09-27T07:01:01;9.80;99.90
54960;DHT22;40860;51.710;8.736;2022-09-27T07:05:24;9.80;99.90
54960;DHT22;40860;51.710;8.736;2022-09-27T07:09:45;9.80;99.90
54960;DHT22;40860;51.710;8.736;2022-09-27T07:13:48;9.80;99.90
54960;DHT22;40860;51.710;8.736;2022-09-27T07:17:55;9.80;99.90
54960;DHT22;40860;51.710;8.736;2022-09-27T07:22:03;9.80;99.90
54960;DHT22;40860;51.710;8.736;2022-09-27T07:26:07;9.90;99.90
54960;DHT22;40860;51.710;8.736;2022-09-27T07:30:11;9.80;99.90
54960;DHT22;40860;51.710;8.736;2022-09-27T07:34:14;9.80;99.90
54960;DHT22;40860;51.710;8.736;2022-09-27T07:38:21;9.90;99.90
54960;DHT22;40860;51.710;8.736;2022-09-27T07:42:25;9.90;99.90
54960;DHT22;40860;51.710;8.736;2022-09-27T07:46:30;10.00;99.90
54960;DHT22;40860;51.710;8.736;2022-09-27T07:50:55;10.10;99.90
54960;DHT22;40860;51.710;8.736;2022-09-27T07:55:37;10.10;99.90
54960;DHT22;40860;51.710;8.736;2022-09-27T07:59:51;10.20;99.90
54960;DHT22;40860;51.710;8.736;2022-09-27T08:03:55;10.30;99.90
54960;DHT22;40860;51.710;8.736;2022-09-27T08:08:00;10.30;99.90
54960;DHT22;40860;51.710;8.736;2022-09-27T08:12:04;10.40;99.90
54960;DHT22;40860;51.710;8.736;2022-09-27T08:16:07;10.50;99.90
54960;DHT22;40860;51.710;8.736;2022-09-27T08:20:40;10.50;99.90
54960;DHT22;40860;51.710;8.736;2022-09-27T08:25:18;10.50;99.90
54960;DHT22;40860;51.710;8.736;2022-09-27T08:29:59;10.50;99.90
54960;DHT22;40860;51.710;8.736;2022-09-27T08:34:04;10.60;99.90
54960;DHT22;40860;51.710;8.736;2022-09-27T08:38:07;10.60;99.90
54960;DHT22;40860;51.710;8.736;2022-09-27T08:42:18;10.70;99.90
54960;DHT22;40860;51.710;8.736;2022-09-27T08:46:35;10.70;99.90
54960;DHT22;40860;51.710;8.736;2022-09-27T08:50:41;10.80;99.90
54960;DHT22;40860;51.710;8.736;2022-09-27T08:54:48;10.90;99.90
54960;DHT22;40860;51.710;8.736;2022-09-27T08:58:56;11.20;99.90
54960;DHT22;40860;51.710;8.736;2022-09-27T09:03:15;11.20;99.90
54960;DHT22;40860;51.710;8.736;2022-09-27T09:07:41;11.10;99.60
54960;DHT22;40860;51.710;8.736;2022-09-27T09:11:55;11.10;98.70
54960;DHT22;40860;51.710;8.736;2022-09-27T09:16:28;11.30;99.10
54960;DHT22;40860;51.710;8.736;2022-09-27T09:20:45;11.80;98.10
54960;DHT22;40860;51.710;8.736;2022-09-27T09:24:59;12.10;96.60
54960;DHT22;40860;51.710;8.736;2022-09-27T09:29:27;11.90;96.40
54960;DHT22;40860;51.710;8.736;2022-09-27T09:33:35;11.70;96.60
54960;DHT22;40860;51.710;8.736;2022-09-27T09:37:46;11.40;96.90
54960;DHT22;40860;51.710;8.736;2022-09-27T09:42:01;11.40;97.20
54960;DHT22;40860;51.710;8.736;2022-09-27T09:46:10;12.00;96.50
54960;DHT22;40860;51.710;8.736;2022-09-27T09:50:17;12.40;95.30
54960;DHT22;40860;51.710;8.736;2022-09-27T09:54:25;12.30;94.30
54960;DHT22;40860;51.710;8.736;2022-09-27T09:58:35;12.00;94.50
54960;DHT22;40860;51.710;8.736;2022-09-27T10:02:46;11.80;95.00
54960;DHT22;40860;51.710;8.736;2022-09-27T10:06:55;11.60;95.00
54960;DHT22;40860;51.710;8.736;2022-09-27T10:11:03;12.00;95.80
54960;DHT22;40860;51.710;8.736;2022-09-27T10:15:22;12.40;95.10
54960;DHT22;40860;51.710;8.736;2022-09-27T10:19:27;12.90;93.70
54960;DHT22;40860;51.710;8.736;2022-09-27T10:23:33;12.70;93.00
54960;DHT22;40860;51.710;8.736;2022-09-27T10:27:46;12.40;93.00
54960;DHT22;40860;51.710;8.736;2022-09-27T10:31:55;12.00;94.00
54960;DHT22;40860;51.710;8.736;2022-09-27T10:36:21;11.80;95.50
54960;DHT22;40860;51.710;8.736;2022-09-27T10:40:28;11.40;96.40
54960;DHT22;40860;51.710;8.736;2022-09-27T10:44:34;11.00;97.50
54960;DHT22;40860;51.710;8.736;2022-09-27T10:49:12;11.00;97.90
54960;DHT22;40860;51.710;8.736;2022-09-27T10:53:21;11.00;98.30
54960;DHT22;40860;51.710;8.736;2022-09-27T10:57:34;11.00;98.30
54960;DHT22;40860;51.710;8.736;2022-09-27T11:01:43;11.00;98.10
54960;DHT22;40860;51.710;8.736;2022-09-27T11:05:53;11.00;98.30
54960;DHT22;40860;51.710;8.736;2022-09-27T11:09:58;10.90;98.20
54960;DHT22;40860;51.710;8.736;2022-09-27T11:14:17;10.80;98.50
54960;DHT22;40860;51.710;8.736;2022-09-27T11:18:29;10.90;98.80
54960;DHT22;40860;51.710;8.736;2022-09-27T11:27:21;11.10;98.40
54960;DHT22;40860;51.710;8.736;2022-09-27T11:31:39;11.20;97.90
54960;DHT22;40860;51.710;8.736;2022-09-27T11:35:56;11.20;97.60
54960;DHT22;40860;51.710;8.736;2022-09-27T11:40:14;11.10;97.40
54960;DHT22;40860;51.710;8.736;2022-09-27T11:44:47;11.00;98.00
54960;DHT22;40860;51.710;8.736;2022-09-27T11:49:25;10.90;97.90
54960;DHT22;40860;51.710;8.736;2022-09-27T11:53:54;10.90;98.20
54960;DHT22;40860;51.710;8.736;2022-09-27T11:58:05;11.00;98.20
54960;DHT22;40860;51.710;8.736;2022-09-27T12:02:37;11.00;97.70
54960;DHT22;40860;51.710;8.736;2022-09-27T12:06:51;11.10;97.50
54960;DHT22;40860;51.710;8.736;2022-09-27T12:11:04;11.20;97.30
54960;DHT22;40860;51.710;8.736;2022-09-27T12:15:14;11.50;97.50
54960;DHT22;40860;51.710;8.736;2022-09-27T12:19:23;11.70;96.00
54960;DHT22;40860;51.710;8.736;2022-09-27T12:23:46;11.80;95.40
54960;DHT22;40860;51.710;8.736;2022-09-27T12:28:09;11.90;95.10
54960;DHT22;40860;51.710;8.736;2022-09-27T12:32:17;11.70;94.50
54960;DHT22;40860;51.710;8.736;2022-09-27T12:36:24;11.60;94.50
54960;DHT22;40860;51.710;8.736;2022-09-27T12:40:31;11.40;94.50
54960;DHT22;40860;51.710;8.736;2022-09-27T12:44:41;11.30;94.30
54960;DHT22;40860;51.710;8.736;2022-09-27T12:48:56;11.20;94.40
54960;DHT22;40860;51.710;8.736;2022-09-27T12:53:04;11.20;94.50
54960;DHT22;40860;51.710;8.736;2022-09-27T12:57:21;11.30;94.70
54960;DHT22;40860;51.710;8.736;2022-09-27T13:01:41;11.30;94.70
54960;DHT22;40860;51.710;8.736;2022-09-27T13:06:28;11.30;94.30
54960;DHT22;40860;51.710;8.736;2022-09-27T13:10:39;11.30;94.20
54960;DHT22;40860;51.710;8.736;2022-09-27T13:14:59;11.30;94.50
54960;DHT22;40860;51.710;8.736;2022-09-27T13:19:12;11.60;94.10
54960;DHT22;40860;51.710;8.736;2022-09-27T13:23:49;11.60;93.40
54960;DHT22;40860;51.710;8.736;2022-09-27T13:27:56;11.60;93.70
54960;DHT22;40860;51.710;8.736;2022-09-27T13:32:23;11.60;93.80
54960;DHT22;40860;51.710;8.736;2022-09-27T13:36:38;11.70;93.80
54960;DHT22;40860;51.710;8.736;2022-09-27T13:40:45;11.80;93.60
54960;DHT22;40860;51.710;8.736;2022-09-27T13:45:14;12.00;93.00
54960;DHT22;40860;51.710;8.736;2022-09-27T13:49:27;12.10;93.00
54960;DHT22;40860;51.710;8.736;2022-09-27T13:53:59;12.00;92.50
54960;DHT22;40860;51.710;8.736;2022-09-27T13:58:31;11.90;92.60
54960;DHT22;40860;51.710;8.736;2022-09-27T14:02:48;11.80;93.00
54960;DHT22;40860;51.710;8.736;2022-09-27T14:06:57;11.70;93.10
54960;DHT22;40860;51.710;8.736;2022-09-27T14:11:10;11.50;93.50
54960;DHT22;40860;51.710;8.736;2022-09-27T14:15:18;11.10;94.20
54960;DHT22;40860;51.710;8.736;2022-09-27T14:19:23;10.90;95.30
54960;DHT22;40860;51.710;8.736;2022-09-27T14:23:27;10.80;96.10
54960;DHT22;40860;51.710;8.736;2022-09-27T14:27:36;10.80;96.60
54960;DHT22;40860;51.710;8.736;2022-09-27T14:32:02;10.70;97.00
54960;DHT22;40860;51.710;8.736;2022-09-27T14:36:24;10.80;97.10
54960;DHT22;40860;51.710;8.736;2022-09-27T14:40:56;10.80;97.10
54960;DHT22;40860;51.710;8.736;2022-09-27T14:45:06;10.80;97.20
54960;DHT22;40860;51.710;8.736;2022-09-27T14:49:19;10.80;97.20
54960;DHT22;40860;51.710;8.736;2022-09-27T14:53:24;10.80;97.40
54960;DHT22;40860;51.710;8.736;2022-09-27T14:57:29;10.80;97.60
54960;DHT22;40860;51.710;8.736;2022-09-27T15:01:35;10.80;97.70
54960;DHT22;40860;51.710;8.736;2022-09-27T15:05:41;10.80;97.60
54960;DHT22;40860;51.710;8.736;2022-09-27T15:09:45;10.80;97.60
54960;DHT22;40860;51.710;8.736;2022-09-27T15:13:50;10.80;97.70
54960;DHT22;40860;51.710;8.736;2022-09-27T15:17:55;10.80;97.60
54960;DHT22;40860;51.710;8.736;2022-09-27T15:22:22;10.90;97.30
54960;DHT22;40860;51.710;8.736;2022-09-27T15:26:35;10.90;97.40
54960;DHT22;40860;51.710;8.736;2022-09-27T15:30:40;10.90;97.40
54960;DHT22;40860;51.710;8.736;2022-09-27T15:34:45;10.90;97.40
54960;DHT22;40860;51.710;8.736;2022-09-27T15:39:05;10.90;97.40
54960;DHT22;40860;51.710;8.736;2022-09-27T15:43:18;10.90;97.40
54960;DHT22;40860;51.710;8.736;2022-09-27T15:47:41;11.00;97.50
54960;DHT22;40860;51.710;8.736;2022-09-27T15:51:51;10.90;97.30
54960;DHT22;40860;51.710;8.736;2022-09-27T15:55:54;10.90;97.10
54960;DHT22;40860;51.710;8.736;2022-09-27T15:59:57;10.80;97.10
54960;DHT22;40860;51.710;8.736;2022-09-27T16:04:00;10.80;97.20
54960;DHT22;40860;51.710;8.736;2022-09-27T16:08:04;10.80;97.10
54960;DHT22;40860;51.710;8.736;2022-09-27T16:12:08;10.70;97.40
54960;DHT22;40860;51.710;8.736;2022-09-27T16:16:15;10.70;97.30
54960;DHT22;40860;51.710;8.736;2022-09-27T16:20:23;10.70;97.50
54960;DHT22;40860;51.710;8.736;2022-09-27T16:24:29;10.70;97.50
54960;DHT22;40860;51.710;8.736;2022-09-27T16:28:33;10.60;97.50
54960;DHT22;40860;51.710;8.736;2022-09-27T16:32:39;10.60;97.60
54960;DHT22;40860;51.710;8.736;2022-09-27T16:36:42;10.60;97.70
54960;DHT22;40860;51.710;8.736;2022-09-27T16:40:47;10.60;97.70
54960;DHT22;40860;51.710;8.736;2022-09-27T16:44:49;10.50;97.70
54960;DHT22;40860;51.710;8.736;2022-09-27T16:48:54;10.50;97.80
54960;DHT22;40860;51.710;8.736;2022-09-27T16:52:57;10.60;97.80
54960;DHT22;40860;51.710;8.736;2022-09-27T16:57:02;10.60;97.80
54960;DHT22;40860;51.710;8.736;2022-09-27T17:01:05;10.50;97.60
54960;DHT22;40860;51.710;8.736;2022-09-27T17:05:08;10.50;97.60
54960;DHT22;40860;51.710;8.736;2022-09-27T17:09:11;10.50;97.60
54960;DHT22;40860;51.710;8.736;2022-09-27T17:13:15;10.50;97.70
54960;DHT22;40860;51.710;8.736;2022-09-27T17:17:18;10.40;97.70
54960;DHT22;40860;51.710;8.736;2022-09-27T17:21:21;10.40;97.80
54960;DHT22;40860;51.710;8.736;2022-09-27T17:25:24;10.40;97.70
54960;DHT22;40860;51.710;8.736;2022-09-27T17:29:28;10.40;97.80
54960;DHT22;40860;51.710;8.736;2022-09-27T17:33:31;10.40;97.80
54960;DHT22;40860;51.710;8.736;2022-09-27T17:37:42;10.30;97.70
54960;DHT22;40860;51.710;8.736;2022-09-27T17:41:44;10.30;97.80
54960;DHT22;40860;51.710;8.736;2022-09-27T17:45:49;10.20;97.70
54960;DHT22;40860;51.710;8.736;2022-09-27T17:49:51;10.20;97.80
54960;DHT22;40860;51.710;8.736;2022-09-27T17:54:12;10.10;97.70
54960;DHT22;40860;51.710;8.736;2022-09-27T17:58:15;10.10;97.80
54960;DHT22;40860;51.710;8.736;2022-09-27T18:02:19;10.00;97.80
54960;DHT22;40860;51.710;8.736;2022-09-27T18:06:22;9.90;97.70
54960;DHT22;40860;51.710;8.736;2022-09-27T18:10:26;9.90;97.70
54960;DHT22;40860;51.710;8.736;2022-09-27T18:14:29;9.80;97.80
54960;DHT22;40860;51.710;8.736;2022-09-27T18:18:33;9.80;97.90
54960;DHT22;40860;51.710;8.736;2022-09-27T18:22:38;9.70;98.10
54960;DHT22;40860;51.710;8.736;2022-09-27T18:26:42;9.70;98.10
54960;DHT22;40860;51.710;8.736;2022-09-27T18:30:47;9.70;98.10
54960;DHT22;40860;51.710;8.736;2022-09-27T18:34:51;9.60;98.10
54960;DHT22;40860;51.710;8.736;2022-09-27T18:38:55;9.60;98.20
54960;DHT22;40860;51.710;8.736;2022-09-27T18:42:58;9.50;98.20
54960;DHT22;40860;51.710;8.736;2022-09-27T18:47:01;9.50;98.20
54960;DHT22;40860;51.710;8.736;2022-09-27T18:51:07;9.40;98.30
54960;DHT22;40860;51.710;8.736;2022-09-27T18:55:10;9.40;98.30
54960;DHT22;40860;51.710;8.736;2022-09-27T18:59:13;9.30;98.40
54960;DHT22;40860;51.710;8.736;2022-09-27T19:03:17;9.30;98.40
54960;DHT22;40860;51.710;8.736;2022-09-27T19:07:22;9.20;98.40
54960;DHT22;40860;51.710;8.736;2022-09-27T19:11:26;9.20;98.50
54960;DHT22;40860;51.710;8.736;2022-09-27T19:15:29;9.20;98.40
54960;DHT22;40860;51.710;8.736;2022-09-27T19:19:32;9.20;98.40
54960;DHT22;40860;51.710;8.736;2022-09-27T19:23:37;9.20;98.40
54960;DHT22;40860;51.710;8.736;2022-09-27T19:27:40;9.20;98.40
54960;DHT22;40860;51.710;8.736;2022-09-27T19:31:44;9.20;98.50
54960;DHT22;40860;51.710;8.736;2022-09-27T19:35:47;9.20;98.40
54960;DHT22;40860;51.710;8.736;2022-09-27T19:39:51;9.20;98.40
54960;DHT22;40860;51.710;8.736;2022-09-27T19:43:56;9.20;98.40
54960;DHT22;40860;51.710;8.736;2022-09-27T19:47:59;9.20;98.30
54960;DHT22;40860;51.710;8.736;2022-09-27T19:52:02;9.20;98.30
54960;DHT22;40860;51.710;8.736;2022-09-27T19:56:08;9.20;98.20
54960;DHT22;40860;51.710;8.736;2022-09-27T20:00:11;9.20;98.20
54960;DHT22;40860;51.710;8.736;2022-09-27T20:04:14;9.20;98.20
54960;DHT22;40860;51.710;8.736;2022-09-27T20:08:17;9.20;98.10
54960;DHT22;40860;51.710;8.736;2022-09-27T20:12:22;9.10;98.20
54960;DHT22;40860;51.710;8.736;2022-09-27T20:16:26;9.10;98.20
54960;DHT22;40860;51.710;8.736;2022-09-27T20:20:29;9.10;98.10
54960;DHT22;40860;51.710;8.736;2022-09-27T20:24:32;9.10;98.20
54960;DHT22;40860;51.710;8.736;2022-09-27T20:28:41;9.10;98.10
54960;DHT22;40860;51.710;8.736;2022-09-27T20:32:44;9.00;98.20
54960;DHT22;40860;51.710;8.736;2022-09-27T20:37:07;9.00;98.10
54960;DHT22;40860;51.710;8.736;2022-09-27T20:41:11;9.00;98.40
54960;DHT22;40860;51.710;8.736;2022-09-27T20:45:16;8.90;98.10
54960;DHT22;40860;51.710;8.736;2022-09-27T20:49:19;8.90;98.00
54960;DHT22;40860;51.710;8.736;2022-09-27T20:53:22;8.90;97.90
54960;DHT22;40860;51.710;8.736;2022-09-27T20:57:26;8.90;97.90
54960;DHT22;40860;51.710;8.736;2022-09-27T21:01:51;8.90;97.90
54960;DHT22;40860;51.710;8.736;2022-09-27T21:05:54;8.80;97.80
54960;DHT22;40860;51.710;8.736;2022-09-27T21:10:00;8.80;97.60
54960;DHT22;40860;51.710;8.736;2022-09-27T21:14:03;8.80;97.50
54960;DHT22;40860;51.710;8.736;2022-09-27T21:18:07;8.80;97.50
54960;DHT22;40860;51.710;8.736;2022-09-27T21:22:10;8.80;97.50
54960;DHT22;40860;51.710;8.736;2022-09-27T21:26:16;8.80;97.60
54960;DHT22;40860;51.710;8.736;2022-09-27T21:30:19;8.80;97.50
54960;DHT22;40860;51.710;8.736;2022-09-27T21:34:26;8.80;97.60
54960;DHT22;40860;51.710;8.736;2022-09-27T21:38:29;8.80;97.60
54960;DHT22;40860;51.710;8.736;2022-09-27T21:42:31;8.80;97.50
54960;DHT22;40860;51.710;8.736;2022-09-27T21:46:37;8.80;97.60
54960;DHT22;40860;51.710;8.736;2022-09-27T21:50:42;8.80;97.60
54960;DHT22;40860;51.710;8.736;2022-09-27T21:54:44;8.90;97.60
54960;DHT22;40860;51.710;8.736;2022-09-27T21:58:48;8.80;97.60
54960;DHT22;40860;51.710;8.736;2022-09-27T22:02:55;8.80;97.60
54960;DHT22;40860;51.710;8.736;2022-09-27T22:06:59;8.80;97.80
54960;DHT22;40860;51.710;8.736;2022-09-27T22:11:03;8.90;97.60
54960;DHT22;40860;51.710;8.736;2022-09-27T22:15:06;8.90;97.60
54960;DHT22;40860;51.710;8.736;2022-09-27T22:19:10;9.00;97.60
54960;DHT22;40860;51.710;8.736;2022-09-27T22:23:15;9.00;97.40
54960;DHT22;40860;51.710;8.736;2022-09-27T22:27:18;9.00;97.30
54960;DHT22;40860;51.710;8.736;2022-09-27T22:31:21;9.00;97.20
54960;DHT22;40860;51.710;8.736;2022-09-27T22:35:24;9.10;97.30
54960;DHT22;40860;51.710;8.736;2022-09-27T22:39:28;9.10;97.40
54960;DHT22;40860;51.710;8.736;2022-09-27T22:43:31;9.10;97.50
54960;DHT22;40860;51.710;8.736;2022-09-27T22:47:34;9.10;97.50
54960;DHT22;40860;51.710;8.736;2022-09-27T22:51:37;9.10;97.50
54960;DHT22;40860;51.710;8.736;2022-09-27T22:55:41;9.10;97.70
54960;DHT22;40860;51.710;8.736;2022-09-27T22:59:44;9.10;97.70
54960;DHT22;40860;51.710;8.736;2022-09-27T23:03:48;9.10;97.70
54960;DHT22;40860;51.710;8.736;2022-09-27T23:07:52;9.10;97.90
54960;DHT22;40860;51.710;8.736;2022-09-27T23:11:56;9.20;98.10
54960;DHT22;40860;51.710;8.736;2022-09-27T23:16:00;9.20;98.20
54960;DHT22;40860;51.710;8.736;2022-09-27T23:20:04;9.10;98.50
54960;DHT22;40860;51.710;8.736;2022-09-27T23:24:09;9.10;98.80
54960;DHT22;40860;51.710;8.736;2022-09-27T23:28:13;9.10;98.90
54960;DHT22;40860;51.710;8.736;2022-09-27T23:32:16;9.10;99.20
54960;DHT22;40860;51.710;8.736;2022-09-27T23:36:20;9.00;99.30
54960;DHT22;40860;51.710;8.736;2022-09-27T23:40:24;9.00;99.40
54960;DHT22;40860;51.710;8.736;2022-09-27T23:44:28;9.00;99.70
54960;DHT22;40860;51.710;8.736;2022-09-27T23:48:32;8.90;99.90
54960;DHT22;40860;51.710;8.736;2022-09-27T23:52:35;8.80;99.90
54960;DHT22;40860;51.710;8.736;2022-09-27T23:56:38;8.90;99.90
